sensor_id;sensor_type;location;lat;lon;timestamp;P1;durP1;ratioP1;P2;durP2;ratioP2
73015;SDS011;61893;50.074;14.440;2023-07-20T00:02:09;2.10;;;1.60;;
73015;SDS011;61893;50.074;14.440;2023-07-20T00:04:38;3.47;;;2.15;;
73015;SDS011;61893;50.074;14.440;2023-07-20T00:07:04;4.13;;;2.30;;
73015;SDS011;61893;50.074;14.440;2023-07-20T00:09:31;4.10;;;2.00;;
73015;SDS011;61893;50.074;14.440;2023-07-20T00:11:56;2.75;;;1.92;;
73015;SDS011;61893;50.074;14.440;2023-07-20T00:14:25;8.05;;;2.20;;
73015;SDS011;61893;50.074;14.440;2023-07-20T00:16:51;5.13;;;2.05;;
73015;SDS011;61893;50.074;14.440;2023-07-20T00:19:27;2.83;;;1.88;;
73015;SDS011;61893;50.074;14.440;2023-07-20T00:21:54;3.40;;;2.00;;
73015;SDS011;61893;50.074;14.440;2023-07-20T00:24:20;3.72;;;2.25;;
73015;SDS011;61893;50.074;14.440;2023-07-20T00:26:46;3.67;;;1.77;;
73015;SDS011;61893;50.074;14.440;2023-07-20T00:29:12;4.25;;;1.80;;
73015;SDS011;61893;50.074;14.440;2023-07-20T00:31:38;4.75;;;2.00;;
73015;SDS011;61893;50.074;14.440;2023-07-20T00:34:04;5.00;;;2.10;;
73015;SDS011;61893;50.074;14.440;2023-07-20T00:36:31;3.53;;;1.90;;
73015;SDS011;61893;50.074;14.440;2023-07-20T00:38:58;3.97;;;2.00;;
73015;SDS011;61893;50.074;14.440;2023-07-20T00:41:24;3.45;;;2.05;;
73015;SDS011;61893;50.074;14.440;2023-07-20T00:43:50;4.93;;;2.03;;
73015;SDS011;61893;50.074;14.440;2023-07-20T00:46:16;4.88;;;2.17;;
73015;SDS011;61893;50.074;14.440;2023-07-20T00:51:10;2.90;;;1.95;;
73015;SDS011;61893;50.074;14.440;2023-07-20T00:56:04;2.35;;;1.50;;
73015;SDS011;61893;50.074;14.440;2023-07-20T01:01:09;3.78;;;2.30;;
73015;SDS011;61893;50.074;14.440;2023-07-20T01:03:36;2.78;;;2.00;;
73015;SDS011;61893;50.074;14.440;2023-07-20T01:11:34;4.93;;;2.10;;
73015;SDS011;61893;50.074;14.440;2023-07-20T01:14:04;4.78;;;2.30;;
73015;SDS011;61893;50.074;14.440;2023-07-20T01:16:30;5.18;;;2.35;;
73015;SDS011;61893;50.074;14.440;2023-07-20T01:18:58;3.40;;;1.90;;
73015;SDS011;61893;50.074;14.440;2023-07-20T01:21:26;6.75;;;2.25;;
73015;SDS011;61893;50.074;14.440;2023-07-20T01:32:50;4.82;;;2.60;;
73015;SDS011;61893;50.074;14.440;2023-07-20T01:35:23;4.05;;;2.40;;
73015;SDS011;61893;50.074;14.440;2023-07-20T01:37:52;4.53;;;2.20;;
73015;SDS011;61893;50.074;14.440;2023-07-20T01:40:19;2.85;;;2.03;;
73015;SDS011;61893;50.074;14.440;2023-07-20T01:42:48;2.50;;;2.00;;
73015;SDS011;61893;50.074;14.440;2023-07-20T01:45:14;3.58;;;1.83;;
73015;SDS011;61893;50.074;14.440;2023-07-20T01:47:40;3.30;;;2.05;;
73015;SDS011;61893;50.074;14.440;2023-07-20T01:50:06;2.03;;;1.75;;
73015;SDS011;61893;50.074;14.440;2023-07-20T01:52:32;4.53;;;2.05;;
73015;SDS011;61893;50.074;14.440;2023-07-20T01:54:58;3.33;;;2.05;;
73015;SDS011;61893;50.074;14.440;2023-07-20T01:57:23;2.65;;;1.95;;
73015;SDS011;61893;50.074;14.440;2023-07-20T01:59:49;2.65;;;1.92;;
73015;SDS011;61893;50.074;14.440;2023-07-20T02:02:15;3.97;;;2.08;;
73015;SDS011;61893;50.074;14.440;2023-07-20T02:04:41;4.00;;;2.10;;
73015;SDS011;61893;50.074;14.440;2023-07-20T02:07:07;5.85;;;2.38;;
73015;SDS011;61893;50.074;14.440;2023-07-20T02:09:32;6.22;;;2.25;;
73015;SDS011;61893;50.074;14.440;2023-07-20T02:11:58;3.47;;;2.28;;
73015;SDS011;61893;50.074;14.440;2023-07-20T02:14:24;4.25;;;2.20;;
73015;SDS011;61893;50.074;14.440;2023-07-20T02:16:49;4.50;;;2.20;;
73015;SDS011;61893;50.074;14.440;2023-07-20T02:19:18;5.22;;;2.38;;
73015;SDS011;61893;50.074;14.440;2023-07-20T02:21:44;3.05;;;2.03;;
73015;SDS011;61893;50.074;14.440;2023-07-20T02:24:11;4.97;;;2.25;;
73015;SDS011;61893;50.074;14.440;2023-07-20T02:26:37;3.78;;;1.77;;
73015;SDS011;61893;50.074;14.440;2023-07-20T02:29:03;6.22;;;2.50;;
73015;SDS011;61893;50.074;14.440;2023-07-20T02:31:30;3.95;;;1.92;;
73015;SDS011;61893;50.074;14.440;2023-07-20T02:33:56;5.15;;;2.58;;
73015;SDS011;61893;50.074;14.440;2023-07-20T02:36:21;5.55;;;2.45;;
73015;SDS011;61893;50.074;14.440;2023-07-20T02:38:48;3.40;;;2.10;;
73015;SDS011;61893;50.074;14.440;2023-07-20T02:41:13;3.25;;;2.22;;
73015;SDS011;61893;50.074;14.440;2023-07-20T02:43:39;2.92;;;2.10;;
73015;SDS011;61893;50.074;14.440;2023-07-20T02:46:05;4.45;;;2.17;;
73015;SDS011;61893;50.074;14.440;2023-07-20T02:48:31;3.85;;;2.25;;
73015;SDS011;61893;50.074;14.440;2023-07-20T02:50:57;2.60;;;2.20;;
73015;SDS011;61893;50.074;14.440;2023-07-20T02:53:25;3.92;;;2.28;;
73015;SDS011;61893;50.074;14.440;2023-07-20T02:55:51;3.38;;;2.00;;
73015;SDS011;61893;50.074;14.440;2023-07-20T02:58:17;4.45;;;2.63;;
73015;SDS011;61893;50.074;14.440;2023-07-20T03:00:44;3.08;;;2.05;;
73015;SDS011;61893;50.074;14.440;2023-07-20T03:03:10;5.82;;;2.10;;
73015;SDS011;61893;50.074;14.440;2023-07-20T03:05:36;3.28;;;2.10;;
73015;SDS011;61893;50.074;14.440;2023-07-20T03:08:13;3.17;;;2.10;;
73015;SDS011;61893;50.074;14.440;2023-07-20T03:10:46;3.72;;;2.50;;
73015;SDS011;61893;50.074;14.440;2023-07-20T03:13:12;5.50;;;2.67;;
73015;SDS011;61893;50.074;14.440;2023-07-20T03:15:39;4.88;;;2.40;;
73015;SDS011;61893;50.074;14.440;2023-07-20T03:18:05;4.60;;;2.47;;
73015;SDS011;61893;50.074;14.440;2023-07-20T03:20:31;4.13;;;2.65;;
73015;SDS011;61893;50.074;14.440;2023-07-20T03:22:57;5.35;;;2.47;;
73015;SDS011;61893;50.074;14.440;2023-07-20T03:25:22;3.95;;;2.30;;
73015;SDS011;61893;50.074;14.440;2023-07-20T03:27:48;5.07;;;2.20;;
73015;SDS011;61893;50.074;14.440;2023-07-20T03:30:14;3.67;;;2.08;;
73015;SDS011;61893;50.074;14.440;2023-07-20T03:32:40;5.72;;;2.72;;
73015;SDS011;61893;50.074;14.440;2023-07-20T03:35:06;7.00;;;2.35;;
73015;SDS011;61893;50.074;14.440;2023-07-20T03:37:32;4.00;;;2.42;;
73015;SDS011;61893;50.074;14.440;2023-07-20T03:40:00;5.88;;;2.35;;
73015;SDS011;61893;50.074;14.440;2023-07-20T03:42:27;3.53;;;2.35;;
73015;SDS011;61893;50.074;14.440;2023-07-20T03:44:52;4.18;;;2.35;;
73015;SDS011;61893;50.074;14.440;2023-07-20T03:47:19;4.65;;;2.50;;
73015;SDS011;61893;50.074;14.440;2023-07-20T03:49:45;3.25;;;2.38;;
73015;SDS011;61893;50.074;14.440;2023-07-20T03:52:10;4.22;;;2.40;;
73015;SDS011;61893;50.074;14.440;2023-07-20T03:54:37;4.85;;;2.40;;
73015;SDS011;61893;50.074;14.440;2023-07-20T03:57:03;3.33;;;2.17;;
73015;SDS011;61893;50.074;14.440;2023-07-20T03:59:29;3.83;;;2.33;;
73015;SDS011;61893;50.074;14.440;2023-07-20T04:01:55;6.13;;;2.80;;
73015;SDS011;61893;50.074;14.440;2023-07-20T04:04:21;4.75;;;3.15;;
73015;SDS011;61893;50.074;14.440;2023-07-20T04:06:47;3.78;;;2.38;;
73015;SDS011;61893;50.074;14.440;2023-07-20T04:09:13;4.72;;;2.75;;
73015;SDS011;61893;50.074;14.440;2023-07-20T04:11:39;9.07;;;3.40;;
73015;SDS011;61893;50.074;14.440;2023-07-20T04:14:05;6.43;;;2.85;;
73015;SDS011;61893;50.074;14.440;2023-07-20T04:16:31;4.95;;;2.60;;
73015;SDS011;61893;50.074;14.440;2023-07-20T04:18:58;6.53;;;3.20;;
73015;SDS011;61893;50.074;14.440;2023-07-20T04:24:12;4.93;;;3.05;;
73015;SDS011;61893;50.074;14.440;2023-07-20T04:26:40;4.13;;;2.30;;
73015;SDS011;61893;50.074;14.440;2023-07-20T04:29:06;4.22;;;2.70;;
73015;SDS011;61893;50.074;14.440;2023-07-20T04:31:31;3.78;;;2.60;;
73015;SDS011;61893;50.074;14.440;2023-07-20T04:34:01;4.75;;;2.75;;
73015;SDS011;61893;50.074;14.440;2023-07-20T04:36:27;3.45;;;2.28;;
73015;SDS011;61893;50.074;14.440;2023-07-20T04:38:53;4.07;;;2.63;;
73015;SDS011;61893;50.074;14.440;2023-07-20T04:41:19;6.05;;;2.42;;
73015;SDS011;61893;50.074;14.440;2023-07-20T04:43:50;3.55;;;2.30;;
73015;SDS011;61893;50.074;14.440;2023-07-20T04:46:16;5.18;;;2.65;;
73015;SDS011;61893;50.074;14.440;2023-07-20T04:48:43;3.70;;;2.60;;
73015;SDS011;61893;50.074;14.440;2023-07-20T04:51:25;5.78;;;2.97;;
73015;SDS011;61893;50.074;14.440;2023-07-20T04:54:05;4.20;;;2.40;;
73015;SDS011;61893;50.074;14.440;2023-07-20T04:56:30;5.03;;;2.45;;
73015;SDS011;61893;50.074;14.440;2023-07-20T04:58:56;4.38;;;2.28;;
73015;SDS011;61893;50.074;14.440;2023-07-20T05:01:23;4.70;;;2.75;;
73015;SDS011;61893;50.074;14.440;2023-07-20T05:03:48;4.35;;;2.30;;
73015;SDS011;61893;50.074;14.440;2023-07-20T05:06:14;6.43;;;2.47;;
73015;SDS011;61893;50.074;14.440;2023-07-20T05:08:41;3.65;;;2.35;;
73015;SDS011;61893;50.074;14.440;2023-07-20T05:11:07;3.58;;;2.40;;
73015;SDS011;61893;50.074;14.440;2023-07-20T05:13:38;7.30;;;2.47;;
73015;SDS011;61893;50.074;14.440;2023-07-20T05:16:04;3.70;;;2.35;;
73015;SDS011;61893;50.074;14.440;2023-07-20T05:18:30;5.85;;;2.63;;
73015;SDS011;61893;50.074;14.440;2023-07-20T05:21:01;3.47;;;2.60;;
73015;SDS011;61893;50.074;14.440;2023-07-20T05:23:26;4.55;;;2.35;;
73015;SDS011;61893;50.074;14.440;2023-07-20T05:25:56;3.30;;;2.20;;
73015;SDS011;61893;50.074;14.440;2023-07-20T05:28:25;4.00;;;2.30;;
73015;SDS011;61893;50.074;14.440;2023-07-20T05:30:52;4.10;;;2.50;;
73015;SDS011;61893;50.074;14.440;2023-07-20T05:35:52;4.50;;;2.47;;
73015;SDS011;61893;50.074;14.440;2023-07-20T05:38:18;3.67;;;2.50;;
73015;SDS011;61893;50.074;14.440;2023-07-20T05:40:45;6.30;;;2.63;;
73015;SDS011;61893;50.074;14.440;2023-07-20T05:43:12;4.00;;;2.20;;
73015;SDS011;61893;50.074;14.440;2023-07-20T05:45:42;6.95;;;2.55;;
73015;SDS011;61893;50.074;14.440;2023-07-20T05:48:09;7.82;;;2.53;;
73015;SDS011;61893;50.074;14.440;2023-07-20T05:50:41;5.72;;;2.10;;
73015;SDS011;61893;50.074;14.440;2023-07-20T05:53:09;5.68;;;1.80;;
73015;SDS011;61893;50.074;14.440;2023-07-20T05:55:35;6.88;;;2.28;;
73015;SDS011;61893;50.074;14.440;2023-07-20T05:58:01;2.78;;;1.88;;
73015;SDS011;61893;50.074;14.440;2023-07-20T06:00:29;4.50;;;2.83;;
73015;SDS011;61893;50.074;14.440;2023-07-20T06:02:58;3.28;;;2.17;;
73015;SDS011;61893;50.074;14.440;2023-07-20T06:05:24;5.85;;;2.55;;
73015;SDS011;61893;50.074;14.440;2023-07-20T06:07:50;4.30;;;2.10;;
73015;SDS011;61893;50.074;14.440;2023-07-20T06:10:16;8.48;;;2.70;;
73015;SDS011;61893;50.074;14.440;2023-07-20T06:12:43;4.72;;;2.10;;
73015;SDS011;61893;50.074;14.440;2023-07-20T06:15:25;3.17;;;1.90;;
73015;SDS011;61893;50.074;14.440;2023-07-20T06:17:54;4.47;;;2.22;;
73015;SDS011;61893;50.074;14.440;2023-07-20T06:20:21;4.38;;;1.90;;
73015;SDS011;61893;50.074;14.440;2023-07-20T06:22:49;15.82;;;2.45;;
73015;SDS011;61893;50.074;14.440;2023-07-20T06:25:15;37.05;;;2.70;;
73015;SDS011;61893;50.074;14.440;2023-07-20T06:27:46;31.73;;;3.03;;
73015;SDS011;61893;50.074;14.440;2023-07-20T06:30:12;6.20;;;2.05;;
73015;SDS011;61893;50.074;14.440;2023-07-20T06:32:38;3.92;;;1.70;;
73015;SDS011;61893;50.074;14.440;2023-07-20T06:35:04;5.18;;;1.67;;
73015;SDS011;61893;50.074;14.440;2023-07-20T06:37:32;3.38;;;1.80;;
73015;SDS011;61893;50.074;14.440;2023-07-20T06:39:58;8.02;;;2.10;;
73015;SDS011;61893;50.074;14.440;2023-07-20T06:42:24;6.03;;;2.10;;
73015;SDS011;61893;50.074;14.440;2023-07-20T06:44:50;6.95;;;1.88;;
73015;SDS011;61893;50.074;14.440;2023-07-20T06:47:25;5.25;;;2.17;;
73015;SDS011;61893;50.074;14.440;2023-07-20T06:49:52;14.98;;;1.98;;
73015;SDS011;61893;50.074;14.440;2023-07-20T06:52:18;3.50;;;1.77;;
73015;SDS011;61893;50.074;14.440;2023-07-20T06:54:44;13.63;;;1.88;;
73015;SDS011;61893;50.074;14.440;2023-07-20T06:57:25;11.20;;;1.48;;
73015;SDS011;61893;50.074;14.440;2023-07-20T07:00:12;15.32;;;2.35;;
73015;SDS011;61893;50.074;14.440;2023-07-20T07:02:41;3.28;;;1.48;;
73015;SDS011;61893;50.074;14.440;2023-07-20T07:05:07;5.00;;;1.40;;
73015;SDS011;61893;50.074;14.440;2023-07-20T07:07:33;51.67;;;3.85;;
73015;SDS011;61893;50.074;14.440;2023-07-20T07:10:01;10.98;;;1.58;;
73015;SDS011;61893;50.074;14.440;2023-07-20T07:12:30;3.85;;;1.42;;
73015;SDS011;61893;50.074;14.440;2023-07-20T07:14:56;4.38;;;1.67;;
73015;SDS011;61893;50.074;14.440;2023-07-20T07:17:22;6.45;;;1.70;;
73015;SDS011;61893;50.074;14.440;2023-07-20T07:19:48;9.15;;;1.58;;
73015;SDS011;61893;50.074;14.440;2023-07-20T07:22:26;7.57;;;1.63;;
73015;SDS011;61893;50.074;14.440;2023-07-20T07:24:59;15.20;;;1.85;;
73015;SDS011;61893;50.074;14.440;2023-07-20T07:27:27;10.85;;;1.73;;
73015;SDS011;61893;50.074;14.440;2023-07-20T07:30:03;14.70;;;1.90;;
73015;SDS011;61893;50.074;14.440;2023-07-20T07:32:31;15.52;;;1.85;;
73015;SDS011;61893;50.074;14.440;2023-07-20T07:34:56;5.07;;;1.90;;
73015;SDS011;61893;50.074;14.440;2023-07-20T07:37:26;6.88;;;1.40;;
73015;SDS011;61893;50.074;14.440;2023-07-20T07:39:52;2.42;;;1.52;;
73015;SDS011;61893;50.074;14.440;2023-07-20T07:42:18;4.93;;;1.52;;
73015;SDS011;61893;50.074;14.440;2023-07-20T07:44:44;7.70;;;1.85;;
73015;SDS011;61893;50.074;14.440;2023-07-20T07:47:11;2.90;;;1.38;;
73015;SDS011;61893;50.074;14.440;2023-07-20T07:49:41;4.03;;;1.52;;
73015;SDS011;61893;50.074;14.440;2023-07-20T07:52:10;3.00;;;1.25;;
73015;SDS011;61893;50.074;14.440;2023-07-20T07:54:36;2.38;;;1.40;;
73015;SDS011;61893;50.074;14.440;2023-07-20T07:57:17;7.47;;;1.40;;
73015;SDS011;61893;50.074;14.440;2023-07-20T08:00:25;3.03;;;1.30;;
73015;SDS011;61893;50.074;14.440;2023-07-20T08:02:55;4.40;;;1.20;;
73015;SDS011;61893;50.074;14.440;2023-07-20T08:05:24;1.92;;;1.13;;
73015;SDS011;61893;50.074;14.440;2023-07-20T08:08:04;2.88;;;1.10;;
73015;SDS011;61893;50.074;14.440;2023-07-20T08:10:30;3.60;;;1.30;;
73015;SDS011;61893;50.074;14.440;2023-07-20T08:13:00;3.35;;;1.40;;
73015;SDS011;61893;50.074;14.440;2023-07-20T08:15:25;3.33;;;1.50;;
73015;SDS011;61893;50.074;14.440;2023-07-20T08:18:06;3.75;;;1.70;;
73015;SDS011;61893;50.074;14.440;2023-07-20T08:20:32;8.43;;;1.50;;
73015;SDS011;61893;50.074;14.440;2023-07-20T08:23:06;19.25;;;2.55;;
73015;SDS011;61893;50.074;14.440;2023-07-20T08:25:47;8.13;;;1.60;;
73015;SDS011;61893;50.074;14.440;2023-07-20T08:28:19;34.33;;;2.40;;
73015;SDS011;61893;50.074;14.440;2023-07-20T08:31:01;24.38;;;2.38;;
73015;SDS011;61893;50.074;14.440;2023-07-20T08:33:45;16.27;;;6.25;;
73015;SDS011;61893;50.074;14.440;2023-07-20T08:36:16;5.88;;;1.50;;
73015;SDS011;61893;50.074;14.440;2023-07-20T08:38:46;4.00;;;1.40;;
73015;SDS011;61893;50.074;14.440;2023-07-20T08:41:15;25.35;;;2.83;;
73015;SDS011;61893;50.074;14.440;2023-07-20T08:43:42;19.60;;;2.20;;
73015;SDS011;61893;50.074;14.440;2023-07-20T08:46:10;5.13;;;1.23;;
73015;SDS011;61893;50.074;14.440;2023-07-20T08:48:47;17.17;;;2.78;;
73015;SDS011;61893;50.074;14.440;2023-07-20T08:51:31;12.85;;;2.08;;
73015;SDS011;61893;50.074;14.440;2023-07-20T08:54:00;6.85;;;1.35;;
73015;SDS011;61893;50.074;14.440;2023-07-20T08:56:33;13.95;;;2.15;;
73015;SDS011;61893;50.074;14.440;2023-07-20T08:59:00;13.45;;;2.30;;
73015;SDS011;61893;50.074;14.440;2023-07-20T09:03:59;5.72;;;1.35;;
73015;SDS011;61893;50.074;14.440;2023-07-20T09:09:18;3.75;;;1.70;;
73015;SDS011;61893;50.074;14.440;2023-07-20T09:11:48;2.28;;;1.33;;
73015;SDS011;61893;50.074;14.440;2023-07-20T09:14:14;5.03;;;1.25;;
73015;SDS011;61893;50.074;14.440;2023-07-20T09:19:51;2.95;;;1.40;;
73015;SDS011;61893;50.074;14.440;2023-07-20T09:22:17;10.23;;;1.60;;
73015;SDS011;61893;50.074;14.440;2023-07-20T09:24:45;5.35;;;2.05;;
73015;SDS011;61893;50.074;14.440;2023-07-20T09:27:20;6.50;;;1.58;;
73015;SDS011;61893;50.074;14.440;2023-07-20T09:29:56;3.88;;;1.80;;
73015;SDS011;61893;50.074;14.440;2023-07-20T09:32:40;3.15;;;1.70;;
73015;SDS011;61893;50.074;14.440;2023-07-20T09:35:14;2.58;;;1.58;;
73015;SDS011;61893;50.074;14.440;2023-07-20T09:37:57;6.68;;;1.52;;
73015;SDS011;61893;50.074;14.440;2023-07-20T09:42:52;5.78;;;1.80;;
73015;SDS011;61893;50.074;14.440;2023-07-20T09:45:36;8.82;;;1.67;;
73015;SDS011;61893;50.074;14.440;2023-07-20T09:48:06;1.95;;;1.30;;
73015;SDS011;61893;50.074;14.440;2023-07-20T09:50:34;3.50;;;1.33;;
73015;SDS011;61893;50.074;14.440;2023-07-20T09:53:06;2.75;;;1.20;;
73015;SDS011;61893;50.074;14.440;2023-07-20T09:55:35;1.65;;;1.20;;
73015;SDS011;61893;50.074;14.440;2023-07-20T09:58:01;3.92;;;1.50;;
73015;SDS011;61893;50.074;14.440;2023-07-20T10:00:29;3.47;;;1.55;;
73015;SDS011;61893;50.074;14.440;2023-07-20T10:02:55;2.90;;;1.60;;
73015;SDS011;61893;50.074;14.440;2023-07-20T10:10:37;1.88;;;1.40;;
73015;SDS011;61893;50.074;14.440;2023-07-20T10:15:43;3.05;;;1.50;;
73015;SDS011;61893;50.074;14.440;2023-07-20T10:18:59;3.25;;;1.60;;
73015;SDS011;61893;50.074;14.440;2023-07-20T10:21:11;2.83;;;1.52;;
73015;SDS011;61893;50.074;14.440;2023-07-20T10:23:38;10.73;;;1.80;;
73015;SDS011;61893;50.074;14.440;2023-07-20T10:26:05;27.90;;;2.45;;
73015;SDS011;61893;50.074;14.440;2023-07-20T10:28:36;10.77;;;2.00;;
73015;SDS011;61893;50.074;14.440;2023-07-20T10:31:03;8.75;;;2.00;;
73015;SDS011;61893;50.074;14.440;2023-07-20T10:33:30;10.15;;;1.92;;
73015;SDS011;61893;50.074;14.440;2023-07-20T10:36:00;7.88;;;1.70;;
73015;SDS011;61893;50.074;14.440;2023-07-20T10:44:03;5.22;;;1.38;;
73015;SDS011;61893;50.074;14.440;2023-07-20T10:46:34;8.93;;;1.55;;
73015;SDS011;61893;50.074;14.440;2023-07-20T10:49:06;5.55;;;1.50;;
73015;SDS011;61893;50.074;14.440;2023-07-20T10:51:40;7.63;;;1.60;;
73015;SDS011;61893;50.074;14.440;2023-07-20T10:56:41;10.10;;;1.70;;
73015;SDS011;61893;50.074;14.440;2023-07-20T11:01:54;1.85;;;1.17;;
73015;SDS011;61893;50.074;14.440;2023-07-20T11:04:38;8.43;;;1.63;;
73015;SDS011;61893;50.074;14.440;2023-07-20T11:07:05;2.88;;;1.48;;
73015;SDS011;61893;50.074;14.440;2023-07-20T11:09:33;3.30;;;1.60;;
73015;SDS011;61893;50.074;14.440;2023-07-20T11:12:16;3.28;;;1.52;;
73015;SDS011;61893;50.074;14.440;2023-07-20T11:14:44;5.93;;;1.92;;
73015;SDS011;61893;50.074;14.440;2023-07-20T11:17:28;3.05;;;1.75;;
73015;SDS011;61893;50.074;14.440;2023-07-20T11:19:56;2.90;;;1.38;;
73015;SDS011;61893;50.074;14.440;2023-07-20T11:22:23;3.85;;;1.65;;
73015;SDS011;61893;50.074;14.440;2023-07-20T11:24:49;7.88;;;1.80;;
73015;SDS011;61893;50.074;14.440;2023-07-20T11:27:16;3.83;;;1.42;;
73015;SDS011;61893;50.074;14.440;2023-07-20T11:29:46;3.70;;;1.67;;
73015;SDS011;61893;50.074;14.440;2023-07-20T11:32:12;4.03;;;1.70;;
73015;SDS011;61893;50.074;14.440;2023-07-20T11:34:40;10.98;;;2.28;;
73015;SDS011;61893;50.074;14.440;2023-07-20T11:37:05;6.78;;;1.75;;
73015;SDS011;61893;50.074;14.440;2023-07-20T11:39:43;5.75;;;1.70;;
73015;SDS011;61893;50.074;14.440;2023-07-20T11:42:08;2.75;;;1.40;;
73015;SDS011;61893;50.074;14.440;2023-07-20T11:44:35;6.65;;;1.80;;
73015;SDS011;61893;50.074;14.440;2023-07-20T11:47:03;3.13;;;1.58;;
73015;SDS011;61893;50.074;14.440;2023-07-20T11:52:28;4.40;;;1.50;;
73015;SDS011;61893;50.074;14.440;2023-07-20T11:55:04;4.40;;;1.50;;
73015;SDS011;61893;50.074;14.440;2023-07-20T11:57:37;4.95;;;1.80;;
73015;SDS011;61893;50.074;14.440;2023-07-20T12:00:04;5.57;;;1.58;;
73015;SDS011;61893;50.074;14.440;2023-07-20T12:02:39;5.13;;;1.70;;
73015;SDS011;61893;50.074;14.440;2023-07-20T12:05:06;7.68;;;1.88;;
73015;SDS011;61893;50.074;14.440;2023-07-20T12:07:35;6.82;;;1.77;;
73015;SDS011;61893;50.074;14.440;2023-07-20T12:10:05;8.20;;;1.90;;
73015;SDS011;61893;50.074;14.440;2023-07-20T12:12:37;6.78;;;1.80;;
73015;SDS011;61893;50.074;14.440;2023-07-20T12:17:59;3.60;;;1.30;;
73015;SDS011;61893;50.074;14.440;2023-07-20T12:25:53;3.65;;;1.35;;
73015;SDS011;61893;50.074;14.440;2023-07-20T12:28:22;8.02;;;1.60;;
73015;SDS011;61893;50.074;14.440;2023-07-20T12:30:49;2.75;;;1.40;;
73015;SDS011;61893;50.074;14.440;2023-07-20T12:39:08;3.22;;;1.50;;
73015;SDS011;61893;50.074;14.440;2023-07-20T12:41:39;3.50;;;1.60;;
73015;SDS011;61893;50.074;14.440;2023-07-20T12:44:06;7.00;;;1.63;;
73015;SDS011;61893;50.074;14.440;2023-07-20T12:49:23;28.85;;;1.95;;
73015;SDS011;61893;50.074;14.440;2023-07-20T12:51:48;12.73;;;1.90;;
73015;SDS011;61893;50.074;14.440;2023-07-20T12:54:14;20.20;;;2.10;;
73015;SDS011;61893;50.074;14.440;2023-07-20T12:56:40;6.72;;;1.33;;
73015;SDS011;61893;50.074;14.440;2023-07-20T12:59:10;11.30;;;2.08;;
73015;SDS011;61893;50.074;14.440;2023-07-20T13:01:36;29.17;;;2.67;;
73015;SDS011;61893;50.074;14.440;2023-07-20T13:04:03;21.00;;;1.90;;
73015;SDS011;61893;50.074;14.440;2023-07-20T13:12:14;1.95;;;1.17;;
73015;SDS011;61893;50.074;14.440;2023-07-20T13:14:41;7.53;;;1.65;;
73015;SDS011;61893;50.074;14.440;2023-07-20T13:17:13;4.80;;;1.58;;
73015;SDS011;61893;50.074;14.440;2023-07-20T13:19:39;4.28;;;1.50;;
73015;SDS011;61893;50.074;14.440;2023-07-20T13:22:20;6.05;;;1.45;;
73015;SDS011;61893;50.074;14.440;2023-07-20T13:24:49;2.80;;;1.20;;
73015;SDS011;61893;50.074;14.440;2023-07-20T13:27:35;1.73;;;1.48;;
73015;SDS011;61893;50.074;14.440;2023-07-20T13:30:02;8.52;;;1.73;;
73015;SDS011;61893;50.074;14.440;2023-07-20T13:35:04;5.32;;;1.35;;
73015;SDS011;61893;50.074;14.440;2023-07-20T13:37:32;8.88;;;1.67;;
73015;SDS011;61893;50.074;14.440;2023-07-20T13:39:58;8.00;;;1.73;;
73015;SDS011;61893;50.074;14.440;2023-07-20T13:42:25;10.18;;;1.98;;
73015;SDS011;61893;50.074;14.440;2023-07-20T13:44:51;4.70;;;1.40;;
73015;SDS011;61893;50.074;14.440;2023-07-20T13:53:21;3.22;;;1.48;;
73015;SDS011;61893;50.074;14.440;2023-07-20T13:58:52;8.63;;;1.90;;
73015;SDS011;61893;50.074;14.440;2023-07-20T14:01:18;4.95;;;1.60;;
73015;SDS011;61893;50.074;14.440;2023-07-20T14:03:45;4.07;;;1.50;;
73015;SDS011;61893;50.074;14.440;2023-07-20T14:06:15;4.68;;;1.70;;
73015;SDS011;61893;50.074;14.440;2023-07-20T14:08:42;3.22;;;1.40;;
73015;SDS011;61893;50.074;14.440;2023-07-20T14:11:14;6.57;;;1.85;;
73015;SDS011;61893;50.074;14.440;2023-07-20T14:13:41;3.65;;;1.65;;
73015;SDS011;61893;50.074;14.440;2023-07-20T14:16:34;2.78;;;1.58;;
73015;SDS011;61893;50.074;14.440;2023-07-20T14:19:12;4.18;;;1.30;;
73015;SDS011;61893;50.074;14.440;2023-07-20T14:21:40;3.00;;;1.50;;
73015;SDS011;61893;50.074;14.440;2023-07-20T14:24:07;2.33;;;1.13;;
73015;SDS011;61893;50.074;14.440;2023-07-20T14:26:35;2.65;;;1.20;;
73015;SDS011;61893;50.074;14.440;2023-07-20T14:29:03;4.75;;;1.27;;
73015;SDS011;61893;50.074;14.440;2023-07-20T14:31:36;2.72;;;1.00;;
73015;SDS011;61893;50.074;14.440;2023-07-20T14:34:11;3.15;;;1.40;;
73015;SDS011;61893;50.074;14.440;2023-07-20T14:36:37;5.13;;;1.33;;
73015;SDS011;61893;50.074;14.440;2023-07-20T14:39:03;3.28;;;1.27;;
73015;SDS011;61893;50.074;14.440;2023-07-20T14:41:33;2.60;;;1.20;;
73015;SDS011;61893;50.074;14.440;2023-07-20T14:47:00;2.08;;;1.30;;
73015;SDS011;61893;50.074;14.440;2023-07-20T14:49:27;2.15;;;1.20;;
73015;SDS011;61893;50.074;14.440;2023-07-20T14:54:45;5.85;;;1.30;;
73015;SDS011;61893;50.074;14.440;2023-07-20T14:57:13;4.47;;;1.00;;
73015;SDS011;61893;50.074;14.440;2023-07-20T14:59:56;2.53;;;1.20;;
73015;SDS011;61893;50.074;14.440;2023-07-20T15:02:22;11.93;;;1.10;;
73015;SDS011;61893;50.074;14.440;2023-07-20T15:04:50;2.80;;;1.08;;
73015;SDS011;61893;50.074;14.440;2023-07-20T15:07:16;5.47;;;1.42;;
73015;SDS011;61893;50.074;14.440;2023-07-20T15:09:52;1.58;;;1.00;;
73015;SDS011;61893;50.074;14.440;2023-07-20T15:12:41;2.78;;;1.33;;
73015;SDS011;61893;50.074;14.440;2023-07-20T15:15:11;4.10;;;1.00;;
73015;SDS011;61893;50.074;14.440;2023-07-20T15:20:20;2.90;;;1.00;;
73015;SDS011;61893;50.074;14.440;2023-07-20T15:25:42;2.05;;;1.00;;
73015;SDS011;61893;50.074;14.440;2023-07-20T15:28:08;2.47;;;1.00;;
73015;SDS011;61893;50.074;14.440;2023-07-20T15:30:34;2.58;;;1.08;;
73015;SDS011;61893;50.074;14.440;2023-07-20T15:35:32;3.92;;;1.20;;
73015;SDS011;61893;50.074;14.440;2023-07-20T15:37:58;1.30;;;1.10;;
73015;SDS011;61893;50.074;14.440;2023-07-20T15:40:24;4.82;;;1.10;;
73015;SDS011;61893;50.074;14.440;2023-07-20T15:42:51;1.75;;;1.25;;
73015;SDS011;61893;50.074;14.440;2023-07-20T15:45:18;1.65;;;1.20;;
73015;SDS011;61893;50.074;14.440;2023-07-20T15:47:44;1.42;;;1.13;;
73015;SDS011;61893;50.074;14.440;2023-07-20T15:50:20;1.65;;;1.20;;
73015;SDS011;61893;50.074;14.440;2023-07-20T15:52:47;1.65;;;1.15;;
73015;SDS011;61893;50.074;14.440;2023-07-20T15:55:14;1.77;;;1.10;;
73015;SDS011;61893;50.074;14.440;2023-07-20T15:57:48;1.42;;;1.00;;
73015;SDS011;61893;50.074;14.440;2023-07-20T16:00:14;1.95;;;0.90;;
73015;SDS011;61893;50.074;14.440;2023-07-20T16:02:42;5.20;;;1.10;;
73015;SDS011;61893;50.074;14.440;2023-07-20T16:05:08;2.20;;;1.20;;
73015;SDS011;61893;50.074;14.440;2023-07-20T16:13:05;2.03;;;0.95;;
73015;SDS011;61893;50.074;14.440;2023-07-20T16:18:23;1.30;;;1.10;;
73015;SDS011;61893;50.074;14.440;2023-07-20T16:23:41;1.40;;;1.10;;
73015;SDS011;61893;50.074;14.440;2023-07-20T16:28:58;1.27;;;1.00;;
73015;SDS011;61893;50.074;14.440;2023-07-20T16:34:12;2.63;;;1.17;;
73015;SDS011;61893;50.074;14.440;2023-07-20T16:36:38;1.45;;;0.90;;
73015;SDS011;61893;50.074;14.440;2023-07-20T16:39:17;4.47;;;0.90;;
73015;SDS011;61893;50.074;14.440;2023-07-20T16:44:17;2.65;;;1.25;;
73015;SDS011;61893;50.074;14.440;2023-07-20T16:46:47;1.00;;;0.70;;
73015;SDS011;61893;50.074;14.440;2023-07-20T16:49:13;1.40;;;1.00;;
73015;SDS011;61893;50.074;14.440;2023-07-20T16:52:00;2.10;;;1.25;;